Time;durP1;ratioP1;P1;durP2;ratioP2;P2;SDS_P1;SDS_P2;PMS_P1;PMS_P2;Temp;Humidity;BMP_temperature;BMP_pressure;BME280_temperature;BME280_humidity;BME280_pressure;Samples;Min_cycle;Max_cycle;Signal;HPM_P1;HPM_P2
2021/10/14 00:01:42;;;;;;;8.85;3.30;;;;;;;;;;5059948;28;20424;-86
2021/10/14 00:04:08;;;;;;;4.47;3.10;;;;;;;;;;5060382;28;20194;-86
2021/10/14 00:06:34;;;;;;;4.57;2.90;;;;;;;;;;5058800;28;20189;-85
2021/10/14 00:09:00;;;;;;;3.83;2.92;;;;;;;;;;5075704;28;20185;-85
2021/10/14 00:11:27;;;;;;;3.17;2.83;;;;;;;;;;5056601;28;20212;-85
2021/10/14 00:13:53;;;;;;;4.90;2.65;;;;;;;;;;5059344;28;20184;-86
2021/10/14 00:16:19;;;;;;;5.90;3.10;;;;;;;;;;5055799;28;20193;-86
2021/10/14 00:18:45;;;;;;;9.85;2.95;;;;;;;;;;5059251;28;20177;-86
2021/10/14 00:21:11;;;;;;;4.07;2.70;;;;;;;;;;5061100;28;20181;-85
2021/10/14 00:23:37;;;;;;;4.03;2.78;;;;;;;;;;5057128;28;20477;-86
2021/10/14 00:26:04;;;;;;;3.67;2.75;;;;;;;;;;5060459;28;20184;-86
2021/10/14 00:28:30;;;;;;;4.20;2.78;;;;;;;;;;5055491;28;20244;-86
2021/10/14 00:30:56;;;;;;;3.28;2.72;;;;;;;;;;5059280;28;20206;-86
2021/10/14 00:33:22;;;;;;;7.70;2.97;;;;;;;;;;5058983;28;20241;-86
2021/10/14 00:35:48;;;;;;;7.68;2.60;;;;;;;;;;5057918;28;20445;-86
2021/10/14 00:38:14;;;;;;;3.67;2.10;;;;;;;;;;5057055;28;20173;-86
2021/10/14 00:40:41;;;;;;;6.68;2.45;;;;;;;;;;5051161;28;20533;-86
2021/10/14 00:43:07;;;;;;;6.85;2.75;;;;;;;;;;5059525;28;20280;-86
2021/10/14 00:45:33;;;;;;;4.67;2.70;;;;;;;;;;5056737;28;20186;-86
2021/10/14 00:47:59;;;;;;;7.03;2.97;;;;;;;;;;5075642;28;20432;-86
2021/10/14 00:50:25;;;;;;;5.22;2.95;;;;;;;;;;5062323;28;20423;-85
2021/10/14 00:52:52;;;;;;;6.03;2.92;;;;;;;;;;5061050;28;20272;-86
2021/10/14 00:55:18;;;;;;;3.25;2.22;;;;;;;;;;5056048;28;20169;-86
2021/10/14 00:57:44;;;;;;;4.40;3.15;;;;;;;;;;5057565;28;20280;-86
2021/10/14 01:00:10;;;;;;;3.28;2.38;;;;;;;;;;5059345;28;20192;-86
2021/10/14 01:02:36;;;;;;;7.53;2.42;;;;;;;;;;5071589;28;20185;-86
2021/10/14 01:05:03;;;;;;;4.75;2.47;;;;;;;;;;5060510;28;20187;-86
2021/10/14 01:07:29;;;;;;;3.33;3.03;;;;;;;;;;5054335;28;20213;-87
2021/10/14 01:09:55;;;;;;;3.47;2.63;;;;;;;;;;5055747;28;20193;-86
2021/10/14 01:12:24;;;;;;;4.57;2.50;;;;;;;;;;5058885;28;20215;-85
2021/10/14 01:14:50;;;;;;;3.35;2.75;;;;;;;;;;5072058;28;20219;-86
2021/10/14 01:17:16;;;;;;;5.10;2.40;;;;;;;;;;5046134;28;20245;-86
2021/10/14 01:19:43;;;;;;;1.95;1.75;;;;;;;;;;5058357;28;20173;-85
2021/10/14 01:22:10;;;;;;;2.35;2.15;;;;;;;;;;5059378;28;20187;-86
2021/10/14 01:24:36;;;;;;;2.75;2.00;;;;;;;;;;5055982;28;20186;-86
2021/10/14 01:27:05;;;;;;;3.35;2.30;;;;;;;;;;5058607;28;20288;-86
2021/10/14 01:29:32;;;;;;;3.13;2.50;;;;;;;;;;5055834;28;20181;-86
2021/10/14 01:32:00;;;;;;;2.65;2.35;;;;;;;;;;5060357;28;20201;-86
2021/10/14 01:34:26;;;;;;;3.75;2.28;;;;;;;;;;5055399;28;20173;-86
2021/10/14 01:36:52;;;;;;;3.75;2.60;;;;;;;;;;5054713;28;20190;-86
2021/10/14 01:39:18;;;;;;;8.77;2.80;;;;;;;;;;5061000;28;20234;-86
2021/10/14 01:41:45;;;;;;;4.30;2.80;;;;;;;;;;5060963;28;20185;-86
2021/10/14 01:44:11;;;;;;;4.13;2.35;;;;;;;;;;5059406;28;20221;-85
2021/10/14 01:46:37;;;;;;;5.95;2.72;;;;;;;;;;5061374;28;20215;-86
2021/10/14 01:49:03;;;;;;;3.78;2.35;;;;;;;;;;5055509;28;20189;-86
2021/10/14 01:51:29;;;;;;;3.28;2.97;;;;;;;;;;5057251;28;20212;-86
2021/10/14 01:53:55;;;;;;;2.60;2.30;;;;;;;;;;5072544;28;20174;-86
2021/10/14 01:56:21;;;;;;;2.67;2.22;;;;;;;;;;5061704;28;20173;-86
2021/10/14 01:58:47;;;;;;;3.25;2.30;;;;;;;;;;5061406;28;20219;-86
2021/10/14 02:01:13;;;;;;;5.23;2.13;;;;;;;;;;5058796;28;20203;-86
2021/10/14 02:03:39;;;;;;;3.10;2.30;;;;;;;;;;5055949;28;20424;-86
2021/10/14 02:06:05;;;;;;;4.45;2.47;;;;;;;;;;5058812;28;20589;-85
2021/10/14 02:08:31;;;;;;;10.45;3.10;;;;;;;;;;5055893;28;20294;-86
2021/10/14 02:10:57;;;;;;;4.00;2.25;;;;;;;;;;5062087;28;20165;-86
2021/10/14 02:13:23;;;;;;;3.13;2.50;;;;;;;;;;5059750;28;20201;-86
2021/10/14 02:15:49;;;;;;;2.13;1.92;;;;;;;;;;5054066;28;20468;-85
2021/10/14 02:18:15;;;;;;;5.18;2.50;;;;;;;;;;5061046;28;20194;-86
2021/10/14 02:20:41;;;;;;;6.28;2.65;;;;;;;;;;5055779;28;20249;-85
2021/10/14 02:23:07;;;;;;;3.65;2.65;;;;;;;;;;5061408;28;20218;-86
2021/10/14 02:25:33;;;;;;;3.50;3.20;;;;;;;;;;5056731;28;20684;-86
2021/10/14 02:27:59;;;;;;;3.40;2.60;;;;;;;;;;5059964;28;20192;-86
2021/10/14 02:30:25;;;;;;;2.78;2.50;;;;;;;;;;5058297;28;20181;-86
2021/10/14 02:32:50;;;;;;;3.15;2.60;;;;;;;;;;5058675;28;20209;-86
2021/10/14 02:35:17;;;;;;;2.90;2.60;;;;;;;;;;5060379;28;20181;-86
2021/10/14 02:37:43;;;;;;;3.60;2.63;;;;;;;;;;5059988;28;20419;-86
2021/10/14 02:40:09;;;;;;;5.75;2.47;;;;;;;;;;5060911;28;20216;-86
2021/10/14 02:42:35;;;;;;;3.08;2.55;;;;;;;;;;5055765;28;20590;-86
2021/10/14 02:45:01;;;;;;;3.63;2.15;;;;;;;;;;5048481;28;20232;-85
2021/10/14 02:47:27;;;;;;;4.00;3.00;;;;;;;;;;5070677;28;20192;-86
2021/10/14 02:49:53;;;;;;;3.65;2.10;;;;;;;;;;5056517;28;20184;-86
2021/10/14 02:52:19;;;;;;;4.95;3.08;;;;;;;;;;5053005;28;20299;-86
2021/10/14 02:54:45;;;;;;;2.43;2.20;;;;;;;;;;5054475;28;20656;-86
2021/10/14 02:57:11;;;;;;;3.90;2.10;;;;;;;;;;5061181;28;20438;-86
2021/10/14 02:59:37;;;;;;;3.88;2.92;;;;;;;;;;5069959;28;20178;-86
2021/10/14 03:02:04;;;;;;;2.70;2.13;;;;;;;;;;5057728;28;20192;-86
2021/10/14 03:04:30;;;;;;;5.57;2.70;;;;;;;;;;5058174;28;20185;-86
2021/10/14 03:06:56;;;;;;;5.82;2.88;;;;;;;;;;5055994;28;20307;-86
2021/10/14 03:09:22;;;;;;;2.58;2.35;;;;;;;;;;5057138;28;20191;-86
2021/10/14 03:11:48;;;;;;;3.00;2.60;;;;;;;;;;5056052;28;20206;-86
2021/10/14 03:14:13;;;;;;;3.25;2.95;;;;;;;;;;5055026;28;20451;-86
2021/10/14 03:16:39;;;;;;;3.33;3.00;;;;;;;;;;5056891;28;20584;-86
2021/10/14 03:19:05;;;;;;;3.55;3.08;;;;;;;;;;5057644;28;20432;-86
2021/10/14 03:21:31;;;;;;;5.70;2.58;;;;;;;;;;5058863;28;20177;-86
2021/10/14 03:23:57;;;;;;;4.68;3.00;;;;;;;;;;5061353;28;20197;-86
2021/10/14 03:26:23;;;;;;;3.60;2.90;;;;;;;;;;5058379;28;20237;-86
2021/10/14 03:28:50;;;;;;;7.45;2.83;;;;;;;;;;5065410;28;20426;-86
2021/10/14 03:31:16;;;;;;;7.32;4.18;;;;;;;;;;5060320;28;20571;-86
2021/10/14 03:33:42;;;;;;;3.65;2.60;;;;;;;;;;5059290;28;20184;-86
2021/10/14 03:36:08;;;;;;;5.53;3.05;;;;;;;;;;5073570;28;20272;-87
2021/10/14 03:38:34;;;;;;;5.63;2.90;;;;;;;;;;5058407;28;20193;-86
2021/10/14 03:41:00;;;;;;;6.68;3.30;;;;;;;;;;5065373;28;20203;-86
2021/10/14 03:43:26;;;;;;;4.38;2.90;;;;;;;;;;5056771;28;20224;-86
2021/10/14 03:45:52;;;;;;;4.60;2.80;;;;;;;;;;5057463;28;20609;-86
2021/10/14 03:48:18;;;;;;;4.10;3.67;;;;;;;;;;5061621;28;20443;-86
2021/10/14 03:50:46;;;;;;;3.70;2.87;;;;;;;;;;5058836;28;20192;-86
2021/10/14 03:53:12;;;;;;;4.30;3.30;;;;;;;;;;5060913;28;20483;-87
2021/10/14 03:55:38;;;;;;;5.22;3.08;;;;;;;;;;5060852;28;20173;-87
2021/10/14 03:58:04;;;;;;;2.40;2.20;;;;;;;;;;5060300;28;20182;-86
2021/10/14 04:00:30;;;;;;;3.38;3.08;;;;;;;;;;5058464;28;20193;-87
2021/10/14 04:02:56;;;;;;;5.25;3.10;;;;;;;;;;5075134;28;20189;-86
2021/10/14 04:05:22;;;;;;;4.68;3.50;;;;;;;;;;5058300;28;20207;-85
2021/10/14 04:07:48;;;;;;;5.47;3.08;;;;;;;;;;5062899;28;20213;-87
2021/10/14 04:10:14;;;;;;;5.30;2.95;;;;;;;;;;5061653;28;20181;-86
2021/10/14 04:12:40;;;;;;;6.47;3.30;;;;;;;;;;5059270;28;20232;-87
2021/10/14 04:15:07;;;;;;;6.40;2.60;;;;;;;;;;5062026;28;20231;-86
2021/10/14 04:17:33;;;;;;;5.50;3.00;;;;;;;;;;5057329;28;20177;-86
2021/10/14 04:19:59;;;;;;;4.40;3.38;;;;;;;;;;5064454;28;20157;-86
2021/10/14 04:22:27;;;;;;;4.85;3.20;;;;;;;;;;5057700;28;20205;-86
2021/10/14 04:24:53;;;;;;;3.25;2.78;;;;;;;;;;5060459;28;20199;-87
2021/10/14 04:27:19;;;;;;;8.35;2.85;;;;;;;;;;5060368;28;20193;-86
2021/10/14 04:29:45;;;;;;;4.47;2.88;;;;;;;;;;5063118;28;20231;-86
2021/10/14 04:32:11;;;;;;;4.18;3.15;;;;;;;;;;5064016;28;20259;-86
2021/10/14 04:34:37;;;;;;;4.00;3.05;;;;;;;;;;5064501;28;20672;-86
2021/10/14 04:37:06;;;;;;;4.22;3.00;;;;;;;;;;5058439;28;20178;-85
2021/10/14 04:39:32;;;;;;;3.72;3.33;;;;;;;;;;5064201;28;20284;-87
2021/10/14 04:41:58;;;;;;;3.40;3.10;;;;;;;;;;5061788;28;20246;-87
2021/10/14 04:44:24;;;;;;;4.43;3.37;;;;;;;;;;5055911;28;20263;-86
2021/10/14 04:46:49;;;;;;;3.38;3.00;;;;;;;;;;5062542;28;20978;-86
2021/10/14 04:49:16;;;;;;;4.20;3.75;;;;;;;;;;5055260;28;20181;-86
2021/10/14 04:51:43;;;;;;;7.20;3.50;;;;;;;;;;5057607;28;20205;-86
2021/10/14 04:54:09;;;;;;;4.20;3.10;;;;;;;;;;5073286;28;20182;-87
2021/10/14 04:56:35;;;;;;;5.88;3.60;;;;;;;;;;5072289;28;20245;-87
2021/10/14 04:59:01;;;;;;;4.00;3.00;;;;;;;;;;5063527;28;20344;-87
2021/10/14 05:01:27;;;;;;;4.88;2.78;;;;;;;;;;5059813;28;20266;-86
2021/10/14 05:03:53;;;;;;;3.85;3.00;;;;;;;;;;5056738;28;20260;-86
2021/10/14 05:06:19;;;;;;;2.80;2.50;;;;;;;;;;5058904;28;20526;-86
2021/10/14 05:08:45;;;;;;;7.68;3.25;;;;;;;;;;5072837;28;20434;-87
2021/10/14 05:11:11;;;;;;;6.90;3.85;;;;;;;;;;5057598;28;20185;-86
2021/10/14 05:13:38;;;;;;;4.60;3.28;;;;;;;;;;5061384;28;20193;-86
2021/10/14 05:16:04;;;;;;;3.47;2.85;;;;;;;;;;5058326;28;20201;-87
2021/10/14 05:18:30;;;;;;;3.83;3.00;;;;;;;;;;5059988;28;20609;-86
2021/10/14 05:20:56;;;;;;;7.07;3.58;;;;;;;;;;5060337;28;20602;-87
2021/10/14 05:23:22;;;;;;;3.40;3.10;;;;;;;;;;5057106;28;20184;-85
2021/10/14 05:25:48;;;;;;;4.00;3.60;;;;;;;;;;5063814;28;20208;-87
2021/10/14 05:28:15;;;;;;;5.70;3.50;;;;;;;;;;5060862;28;20179;-87
2021/10/14 05:30:41;;;;;;;5.45;3.22;;;;;;;;;;5057619;28;20220;-86
2021/10/14 05:33:07;;;;;;;7.93;3.70;;;;;;;;;;5074673;28;20206;-87
2021/10/14 05:35:33;;;;;;;3.90;3.10;;;;;;;;;;5061236;28;20616;-87
2021/10/14 05:38:01;;;;;;;3.92;3.20;;;;;;;;;;5060959;28;20168;-87
2021/10/14 05:40:27;;;;;;;3.63;3.15;;;;;;;;;;5055405;28;20611;-87
2021/10/14 05:42:53;;;;;;;7.43;3.23;;;;;;;;;;5054864;28;20189;-87
2021/10/14 05:45:19;;;;;;;4.35;2.88;;;;;;;;;;5057832;28;20471;-87
2021/10/14 05:47:45;;;;;;;4.37;3.23;;;;;;;;;;5072400;28;20185;-88
2021/10/14 05:50:11;;;;;;;3.58;3.28;;;;;;;;;;5058314;28;21273;-87
2021/10/14 05:52:37;;;;;;;3.30;3.00;;;;;;;;;;5053738;28;20270;-87
2021/10/14 05:55:03;;;;;;;5.75;3.95;;;;;;;;;;5060464;28;20633;-87
2021/10/14 05:57:29;;;;;;;4.57;2.90;;;;;;;;;;5060949;28;20181;-86
2021/10/14 05:59:56;;;;;;;6.88;3.53;;;;;;;;;;5059970;28;20181;-88
2021/10/14 06:02:22;;;;;;;3.72;2.65;;;;;;;;;;5055607;28;20226;-87
2021/10/14 06:04:49;;;;;;;7.30;3.30;;;;;;;;;;5062130;28;20204;-87
2021/10/14 06:07:15;;;;;;;4.95;3.22;;;;;;;;;;5055469;28;20181;-88
2021/10/14 06:09:41;;;;;;;5.78;2.92;;;;;;;;;;5059252;28;20645;-88
2021/10/14 06:12:07;;;;;;;8.07;3.17;;;;;;;;;;5057673;28;20209;-88
2021/10/14 06:14:33;;;;;;;3.10;2.78;;;;;;;;;;5060307;28;20192;-87
2021/10/14 06:16:59;;;;;;;4.22;3.38;;;;;;;;;;5058354;28;20201;-86
2021/10/14 06:19:25;;;;;;;5.37;4.13;;;;;;;;;;5060706;28;20188;-87
2021/10/14 06:21:51;;;;;;;4.30;3.65;;;;;;;;;;5057709;28;20488;-87
2021/10/14 06:24:17;;;;;;;4.77;3.30;;;;;;;;;;5059797;28;20626;-88
2021/10/14 06:26:43;;;;;;;5.85;3.10;;;;;;;;;;5057670;28;20440;-87
2021/10/14 06:29:09;;;;;;;6.97;4.00;;;;;;;;;;5062995;28;20185;-88
2021/10/14 06:31:35;;;;;;;8.40;3.65;;;;;;;;;;5071164;28;20451;-87
2021/10/14 06:34:01;;;;;;;7.10;4.60;;;;;;;;;;5058776;28;20185;-88
2021/10/14 06:36:27;;;;;;;4.30;3.90;;;;;;;;;;5058319;28;20439;-87
2021/10/14 06:38:53;;;;;;;6.47;3.95;;;;;;;;;;5059121;28;20180;-87
2021/10/14 06:41:19;;;;;;;4.85;3.83;;;;;;;;;;5055399;28;20168;-86
2021/10/14 06:43:44;;;;;;;6.43;3.92;;;;;;;;;;5056840;28;20252;-88
2021/10/14 06:46:10;;;;;;;6.93;3.77;;;;;;;;;;5058907;28;20189;-86
2021/10/14 06:48:36;;;;;;;5.35;4.20;;;;;;;;;;5055214;28;20433;-87
2021/10/14 06:51:02;;;;;;;15.10;5.35;;;;;;;;;;5065002;28;20177;-87
2021/10/14 06:53:28;;;;;;;7.40;4.20;;;;;;;;;;5058108;28;20328;-88
2021/10/14 06:55:54;;;;;;;9.10;5.05;;;;;;;;;;5070798;28;20191;-87
2021/10/14 06:58:20;;;;;;;9.02;5.75;;;;;;;;;;5064041;28;20273;-88
2021/10/14 07:00:47;;;;;;;8.45;6.10;;;;;;;;;;5057803;28;20173;-88
2021/10/14 07:03:13;;;;;;;10.52;8.07;;;;;;;;;;5080845;28;20184;-89
2021/10/14 07:05:39;;;;;;;8.05;6.50;;;;;;;;;;5067352;28;20189;-88
2021/10/14 07:08:05;;;;;;;8.85;6.15;;;;;;;;;;5061604;28;20183;-87
2021/10/14 07:10:31;;;;;;;7.18;5.65;;;;;;;;;;5071753;28;20669;-89
2021/10/14 07:13:04;;;;;;;8.27;5.88;;;;;;;;;;5064797;28;20209;-89
2021/10/14 07:15:30;;;;;;;7.70;6.13;;;;;;;;;;5063105;28;21054;-85
2021/10/14 07:17:56;;;;;;;7.47;5.65;;;;;;;;;;5064011;28;20226;-89
2021/10/14 07:20:22;;;;;;;6.73;4.33;;;;;;;;;;5057907;28;20174;-88
2021/10/14 07:22:48;;;;;;;10.07;5.13;;;;;;;;;;5060631;28;20427;-89
2021/10/14 07:25:14;;;;;;;6.28;5.05;;;;;;;;;;5060800;28;20226;-90
2021/10/14 07:27:40;;;;;;;5.85;5.07;;;;;;;;;;5060529;28;20243;-89
2021/10/14 07:30:07;;;;;;;7.35;6.65;;;;;;;;;;5058581;28;21338;-88
2021/10/14 07:32:33;;;;;;;15.90;6.93;;;;;;;;;;5080056;28;20201;-89
2021/10/14 07:34:59;;;;;;;14.23;10.82;;;;;;;;;;5062349;28;20177;-87
2021/10/14 07:37:25;;;;;;;11.93;8.77;;;;;;;;;;5075333;28;20181;-88
2021/10/14 07:39:51;;;;;;;12.40;6.90;;;;;;;;;;5058871;28;20257;-88
2021/10/14 07:42:17;;;;;;;5.80;4.90;;;;;;;;;;5062882;28;20185;-87
2021/10/14 07:44:43;;;;;;;6.38;4.22;;;;;;;;;;5052940;28;20226;-86
2021/10/14 07:47:09;;;;;;;8.63;4.53;;;;;;;;;;5069461;28;20209;-86
2021/10/14 07:49:35;;;;;;;7.53;4.15;;;;;;;;;;5073353;28;20182;-87
2021/10/14 07:52:02;;;;;;;7.57;4.70;;;;;;;;;;5058633;28;20268;-87
2021/10/14 07:54:28;;;;;;;5.53;4.35;;;;;;;;;;5059683;28;20201;-87
2021/10/14 07:56:54;;;;;;;7.15;5.30;;;;;;;;;;5060492;28;20200;-87
2021/10/14 07:59:19;;;;;;;6.23;5.10;;;;;;;;;;5057555;28;20250;-86
2021/10/14 08:01:45;;;;;;;5.33;4.70;;;;;;;;;;5063567;28;20431;-88
2021/10/14 08:04:12;;;;;;;7.00;5.70;;;;;;;;;;5056017;28;21081;-86
2021/10/14 08:06:38;;;;;;;5.13;4.60;;;;;;;;;;5063382;28;20181;-88
2021/10/14 08:09:05;;;;;;;9.48;5.05;;;;;;;;;;5060018;28;20185;-86
2021/10/14 08:11:30;;;;;;;6.00;4.82;;;;;;;;;;5063001;28;20201;-88
2021/10/14 08:13:57;;;;;;;10.90;5.97;;;;;;;;;;5059110;28;20177;-87
2021/10/14 08:16:23;;;;;;;5.55;4.50;;;;;;;;;;5057544;28;20272;-87
2021/10/14 08:18:49;;;;;;;6.88;4.25;;;;;;;;;;5054823;28;20206;-87
2021/10/14 08:21:15;;;;;;;6.00;4.70;;;;;;;;;;5049058;28;20547;-86
2021/10/14 08:23:41;;;;;;;8.40;5.30;;;;;;;;;;5071532;28;20186;-86
2021/10/14 08:26:10;;;;;;;6.55;4.45;;;;;;;;;;5059580;28;20187;-85
2021/10/14 08:28:36;;;;;;;8.63;5.50;;;;;;;;;;5056629;28;20661;-86
2021/10/14 08:31:03;;;;;;;11.23;4.07;;;;;;;;;;5055203;28;20745;-86
2021/10/14 08:33:29;;;;;;;11.30;5.03;;;;;;;;;;5065077;28;20205;-86
2021/10/14 08:35:55;;;;;;;12.88;5.68;;;;;;;;;;5057848;28;20205;-85
2021/10/14 08:38:21;;;;;;;5.30;4.00;;;;;;;;;;5056749;28;20169;-85
2021/10/14 08:40:47;;;;;;;8.45;4.30;;;;;;;;;;5058078;28;20166;-86
2021/10/14 08:43:16;;;;;;;6.00;3.50;;;;;;;;;;5011616;28;1359413;-86
2021/10/14 08:45:43;;;;;;;8.93;4.13;;;;;;;;;;5057347;28;20188;-85
2021/10/14 08:48:10;;;;;;;7.20;4.68;;;;;;;;;;5061313;28;20245;-86
2021/10/14 08:50:37;;;;;;;8.05;4.85;;;;;;;;;;5072020;28;20203;-85
2021/10/14 08:53:03;;;;;;;7.53;4.03;;;;;;;;;;5061531;28;20224;-85
2021/10/14 08:55:34;;;;;;;6.97;4.68;;;;;;;;;;5055577;28;20192;-83
2021/10/14 08:58:00;;;;;;;4.88;4.35;;;;;;;;;;5058171;28;20185;-86
2021/10/14 09:00:26;;;;;;;6.10;5.32;;;;;;;;;;5058104;28;20192;-86
2021/10/14 09:02:52;;;;;;;7.07;4.67;;;;;;;;;;5071818;28;20209;-86
2021/10/14 09:05:18;;;;;;;7.20;5.22;;;;;;;;;;5060338;28;20462;-86
2021/10/14 09:07:48;;;;;;;7.32;4.40;;;;;;;;;;5058583;28;20630;-86
2021/10/14 09:10:14;;;;;;;9.55;4.63;;;;;;;;;;5060064;28;20187;-86
2021/10/14 09:12:41;;;;;;;6.70;4.57;;;;;;;;;;5057000;28;20269;-86
2021/10/14 09:15:08;;;;;;;8.02;4.38;;;;;;;;;;5072683;28;20178;-86
2021/10/14 09:17:37;;;;;;;7.60;5.30;;;;;;;;;;5056689;28;20193;-86
2021/10/14 09:20:21;;;;;;;5.97;4.25;;;;;;;;;;5059369;28;20176;-85
2021/10/14 09:22:54;;;;;;;6.75;3.63;;;;;;;;;;5056466;28;20193;-87
2021/10/14 09:25:34;;;;;;;5.85;3.78;;;;;;;;;;5057008;28;20295;-88
2021/10/14 09:28:10;;;;;;;6.00;3.60;;;;;;;;;;5055409;28;20185;-85
2021/10/14 09:30:43;;;;;;;9.40;3.35;;;;;;;;;;5057725;28;20174;-86
2021/10/14 09:33:26;;;;;;;5.72;3.25;;;;;;;;;;5062274;28;20197;-86
2021/10/14 09:35:52;;;;;;;4.93;3.42;;;;;;;;;;5072713;28;20182;-85
2021/10/14 09:38:32;;;;;;;3.97;2.93;;;;;;;;;;5057963;28;20180;-86
2021/10/14 09:41:02;;;;;;;7.47;2.45;;;;;;;;;;5074356;28;20427;-84
2021/10/14 09:43:28;;;;;;;3.05;2.10;;;;;;;;;;5059632;28;20645;-86
2021/10/14 09:45:54;;;;;;;2.63;2.00;;;;;;;;;;5054790;28;20200;-85
2021/10/14 09:48:20;;;;;;;5.63;1.90;;;;;;;;;;5058359;28;20184;-87
2021/10/14 09:50:47;;;;;;;4.53;2.30;;;;;;;;;;5072150;28;20471;-84
2021/10/14 09:53:17;;;;;;;6.10;3.30;;;;;;;;;;5056808;28;20513;-87
2021/10/14 09:55:44;;;;;;;3.78;2.15;;;;;;;;;;5062364;28;20201;-87
2021/10/14 09:58:10;;;;;;;6.20;2.22;;;;;;;;;;5055078;28;20614;-87
2021/10/14 10:00:38;;;;;;;3.97;2.35;;;;;;;;;;5055689;28;20210;-84
2021/10/14 10:03:04;;;;;;;6.90;2.22;;;;;;;;;;5059396;28;20177;-86
2021/10/14 10:05:31;;;;;;;2.67;1.80;;;;;;;;;;5055501;28;20193;-87
2021/10/14 10:07:58;;;;;;;7.97;2.00;;;;;;;;;;5057483;28;20177;-85
2021/10/14 10:10:25;;;;;;;2.45;1.70;;;;;;;;;;5054404;28;20203;-86
2021/10/14 10:12:52;;;;;;;5.13;3.38;;;;;;;;;;5054710;28;20198;-84
2021/10/14 10:15:37;;;;;;;5.00;2.22;;;;;;;;;;5057298;28;20189;-86
2021/10/14 10:18:03;;;;;;;3.28;1.58;;;;;;;;;;5059909;28;20177;-87
2021/10/14 10:20:43;;;;;;;2.45;1.70;;;;;;;;;;5055340;28;20196;-84
2021/10/14 10:23:09;;;;;;;4.43;1.67;;;;;;;;;;5061134;28;20184;-84
2021/10/14 10:25:36;;;;;;;2.80;1.40;;;;;;;;;;5054375;28;20189;-80
2021/10/14 10:28:06;;;;;;;2.22;1.30;;;;;;;;;;5057057;28;21000;-84
2021/10/14 10:30:37;;;;;;;2.80;1.27;;;;;;;;;;5057798;28;22173;-84
2021/10/14 10:33:04;;;;;;;4.93;1.33;;;;;;;;;;5048755;28;20201;-85
2021/10/14 10:35:40;;;;;;;5.28;1.40;;;;;;;;;;5059360;28;20630;-84
2021/10/14 10:38:27;;;;;;;4.05;1.50;;;;;;;;;;5057835;28;20172;-87
2021/10/14 10:40:55;;;;;;;3.58;1.35;;;;;;;;;;5054729;28;20207;-84
2021/10/14 10:43:29;;;;;;;2.67;1.52;;;;;;;;;;5055297;28;20216;-85
2021/10/14 10:46:05;;;;;;;2.53;1.35;;;;;;;;;;5054137;28;20205;-85
2021/10/14 10:48:38;;;;;;;6.60;2.50;;;;;;;;;;5056047;28;20256;-81
2021/10/14 10:51:06;;;;;;;4.35;1.95;;;;;;;;;;5058070;28;20203;-85
2021/10/14 10:53:40;;;;;;;3.25;1.80;;;;;;;;;;5070098;28;20216;-85
2021/10/14 10:56:08;;;;;;;2.65;2.15;;;;;;;;;;5056093;28;20687;-89
2021/10/14 10:58:34;;;;;;;6.20;1.30;;;;;;;;;;5057803;28;20174;-84
2021/10/14 11:01:00;;;;;;;2.73;1.53;;;;;;;;;;5057980;28;20540;-83
2021/10/14 11:03:27;;;;;;;2.28;1.05;;;;;;;;;;5050087;28;20444;-85
2021/10/14 11:05:54;;;;;;;2.25;1.15;;;;;;;;;;5071103;28;20204;-82
2021/10/14 11:08:22;;;;;;;3.20;1.58;;;;;;;;;;5060739;28;20184;-86
2021/10/14 11:10:53;;;;;;;4.45;2.05;;;;;;;;;;5070311;28;20252;-83
2021/10/14 11:13:19;;;;;;;3.55;1.10;;;;;;;;;;5060580;28;20257;-86
2021/10/14 11:16:04;;;;;;;2.30;1.20;;;;;;;;;;5056479;28;20201;-83
2021/10/14 11:18:30;;;;;;;5.78;1.58;;;;;;;;;;5055772;28;20546;-86
2021/10/14 11:20:56;;;;;;;3.33;1.15;;;;;;;;;;5071746;28;20190;-86
2021/10/14 11:23:24;;;;;;;3.83;1.60;;;;;;;;;;5057239;28;20166;-87
2021/10/14 11:26:21;;;;;;;2.00;1.40;;;;;;;;;;5075728;28;20940;-86
2021/10/14 11:28:51;;;;;;;3.92;1.42;;;;;;;;;;5043310;28;20186;-84
2021/10/14 11:31:36;;;;;;;1.80;1.00;;;;;;;;;;5052496;28;20323;-87
2021/10/14 11:34:16;;;;;;;2.38;1.10;;;;;;;;;;5055641;28;20185;-85
2021/10/14 11:36:49;;;;;;;1.75;1.27;;;;;;;;;;5056171;28;20228;-84
2021/10/14 11:39:15;;;;;;;2.55;1.40;;;;;;;;;;5057752;28;20177;-86
2021/10/14 11:41:41;;;;;;;4.25;1.60;;;;;;;;;;5064292;28;20240;-85
2021/10/14 11:44:08;;;;;;;2.75;1.55;;;;;;;;;;5064734;28;20227;-85
2021/10/14 11:46:35;;;;;;;3.58;1.60;;;;;;;;;;5055497;28;20184;-85
2021/10/14 11:49:03;;;;;;;6.13;1.50;;;;;;;;;;5052534;28;20189;-85
2021/10/14 11:51:32;;;;;;;1.75;1.30;;;;;;;;;;5057747;28;20188;-82
2021/10/14 11:54:05;;;;;;;4.47;2.13;;;;;;;;;;5058022;28;20239;-84
2021/10/14 11:56:32;;;;;;;2.88;1.70;;;;;;;;;;5060503;28;20221;-84
2021/10/14 11:59:01;;;;;;;3.92;1.70;;;;;;;;;;5060660;28;20179;-88
2021/10/14 12:01:28;;;;;;;1.75;1.30;;;;;;;;;;5059736;28;20657;-87
2021/10/14 12:03:54;;;;;;;5.78;1.52;;;;;;;;;;5056783;28;20197;-87
2021/10/14 12:06:20;;;;;;;4.22;1.55;;;;;;;;;;5061066;28;20181;-86
2021/10/14 12:08:47;;;;;;;4.22;1.77;;;;;;;;;;5074310;28;20177;-86
2021/10/14 12:11:20;;;;;;;3.15;1.58;;;;;;;;;;5059202;28;20170;-86
2021/10/14 12:13:59;;;;;;;3.85;1.55;;;;;;;;;;5064213;28;20200;-84
2021/10/14 12:16:26;;;;;;;3.22;1.77;;;;;;;;;;5055874;28;20179;-86
2021/10/14 12:18:52;;;;;;;4.18;2.60;;;;;;;;;;5058473;28;20181;-83
2021/10/14 12:21:35;;;;;;;4.05;2.17;;;;;;;;;;5061286;28;20180;-84
2021/10/14 12:24:08;;;;;;;3.25;2.25;;;;;;;;;;5075756;28;20177;-86
2021/10/14 12:26:36;;;;;;;6.15;3.78;;;;;;;;;;5057258;28;20209;-84
2021/10/14 12:29:21;;;;;;;6.40;3.55;;;;;;;;;;5061901;28;20183;-85
2021/10/14 12:31:47;;;;;;;6.70;2.10;;;;;;;;;;5065081;28;20180;-85
2021/10/14 12:34:13;;;;;;;5.82;2.08;;;;;;;;;;5056503;28;20196;-85
2021/10/14 12:36:46;;;;;;;1.60;1.50;;;;;;;;;;5056738;28;20411;-84
2021/10/14 12:39:22;;;;;;;3.58;1.65;;;;;;;;;;5061583;28;20188;-85
2021/10/14 12:41:56;;;;;;;4.30;2.13;;;;;;;;;;5059306;28;20200;-85
2021/10/14 12:44:26;;;;;;;3.22;2.13;;;;;;;;;;5060023;28;20234;-85
2021/10/14 12:46:58;;;;;;;2.40;1.50;;;;;;;;;;5073394;28;20242;-85
2021/10/14 12:51:51;;;;;;;2.35;2.10;;;;;;;;;;5055783;28;20236;-85
2021/10/14 12:54:18;;;;;;;4.82;2.10;;;;;;;;;;5059371;28;20245;-86
2021/10/14 12:56:45;;;;;;;8.80;2.90;;;;;;;;;;5057698;28;21302;-84
2021/10/14 12:59:11;;;;;;;2.00;1.80;;;;;;;;;;5058424;28;20193;-84
2021/10/14 13:01:38;;;;;;;5.35;1.75;;;;;;;;;;5073763;28;20185;-88
2021/10/14 13:04:05;;;;;;;3.20;2.60;;;;;;;;;;5053421;28;20208;-88
2021/10/14 13:06:31;;;;;;;4.45;2.30;;;;;;;;;;5059206;28;20185;-89
2021/10/14 13:09:00;;;;;;;2.00;1.80;;;;;;;;;;5060540;28;20184;-87
2021/10/14 13:11:36;;;;;;;2.92;1.55;;;;;;;;;;5060141;28;20168;-87
2021/10/14 13:14:06;;;;;;;2.58;1.50;;;;;;;;;;5059225;28;20175;-83
2021/10/14 13:16:32;;;;;;;2.53;1.77;;;;;;;;;;5056524;28;20706;-84
2021/10/14 13:18:59;;;;;;;5.22;2.20;;;;;;;;;;5058881;28;20212;-89
2021/10/14 13:21:25;;;;;;;4.75;2.13;;;;;;;;;;5058021;28;20207;-88
2021/10/14 13:23:51;;;;;;;6.65;2.25;;;;;;;;;;5060690;28;20196;-87
2021/10/14 13:26:17;;;;;;;5.22;1.70;;;;;;;;;;5056991;28;20188;-88
2021/10/14 13:28:43;;;;;;;3.28;2.15;;;;;;;;;;5061219;28;20252;-89
2021/10/14 13:31:10;;;;;;;4.20;1.65;;;;;;;;;;5056925;28;20211;-85
2021/10/14 13:33:37;;;;;;;3.55;1.70;;;;;;;;;;5051197;28;20326;-88
2021/10/14 13:36:12;;;;;;;3.85;1.85;;;;;;;;;;5059073;28;20189;-88
2021/10/14 13:38:43;;;;;;;1.60;1.50;;;;;;;;;;5051343;28;20171;-89
2021/10/14 13:41:11;;;;;;;4.05;1.63;;;;;;;;;;5073789;28;20203;-84
2021/10/14 13:43:47;;;;;;;2.72;1.65;;;;;;;;;;5052321;28;20239;-88
2021/10/14 13:46:14;;;;;;;3.45;1.30;;;;;;;;;;5052575;28;20187;-88
2021/10/14 13:48:40;;;;;;;3.88;1.98;;;;;;;;;;5065569;28;20185;-88
2021/10/14 13:51:06;;;;;;;1.90;1.70;;;;;;;;;;5049987;28;20184;-88
2021/10/14 13:53:32;;;;;;;3.93;2.10;;;;;;;;;;5062848;28;20837;-89
2021/10/14 13:55:58;;;;;;;2.70;1.80;;;;;;;;;;5062287;28;20476;-90
2021/10/14 13:58:24;;;;;;;2.50;1.30;;;;;;;;;;5059634;28;20431;-89
2021/10/14 14:00:50;;;;;;;1.50;1.40;;;;;;;;;;5060175;28;20948;-89
2021/10/14 14:03:16;;;;;;;5.33;2.00;;;;;;;;;;5058253;28;20433;-88
2021/10/14 14:05:50;;;;;;;3.07;1.57;;;;;;;;;;5070140;28;20442;-87
2021/10/14 14:08:16;;;;;;;2.90;2.13;;;;;;;;;;5057090;28;20425;-87
2021/10/14 14:10:43;;;;;;;3.10;1.70;;;;;;;;;;5056037;28;20405;-87
2021/10/14 14:13:09;;;;;;;3.50;1.50;;;;;;;;;;5054081;28;20456;-87
2021/10/14 14:15:37;;;;;;;2.60;1.60;;;;;;;;;;5055692;28;20432;-84
2021/10/14 14:18:04;;;;;;;4.57;1.97;;;;;;;;;;5073533;28;21032;-86
2021/10/14 14:20:30;;;;;;;2.07;1.47;;;;;;;;;;5060603;28;20498;-88
2021/10/14 14:22:56;;;;;;;1.70;1.60;;;;;;;;;;5053898;28;20451;-88
2021/10/14 14:25:23;;;;;;;4.50;1.83;;;;;;;;;;5052445;28;20963;-85
2021/10/14 14:27:49;;;;;;;5.00;1.57;;;;;;;;;;5055000;28;20555;-87
2021/10/14 14:30:15;;;;;;;3.37;2.07;;;;;;;;;;5058131;28;20443;-87
2021/10/14 14:32:41;;;;;;;2.10;1.80;;;;;;;;;;5057646;28;20929;-87
2021/10/14 14:35:07;;;;;;;3.20;1.53;;;;;;;;;;5058536;28;20425;-88
2021/10/14 14:37:33;;;;;;;2.23;1.80;;;;;;;;;;5054286;28;21212;-88
2021/10/14 14:40:09;;;;;;;3.67;1.80;;;;;;;;;;5055965;28;20521;-88
2021/10/14 14:42:35;;;;;;;6.43;1.77;;;;;;;;;;5055759;28;20437;-87
2021/10/14 14:45:02;;;;;;;4.07;1.73;;;;;;;;;;5059199;28;20463;-88
2021/10/14 14:47:28;;;;;;;4.20;1.57;;;;;;;;;;5053017;28;20490;-86